Time;durP1;ratioP1;P1;durP2;ratioP2;P2;SDS_P1;SDS_P2;PMS_P1;PMS_P2;Temp;Humidity;BMP_temperature;BMP_pressure;BME280_temperature;BME280_humidity;BME280_pressure;Samples;Min_cycle;Max_cycle;Signal;HPM_P1;HPM_P2
2022/01/02 00:02:27;;;;;;;86.07;7.97;;;;;;;;;;6111468;23;20198;-91
2022/01/02 00:05:33;;;;;;;87.57;9.10;;;;;;;;;;6109817;23;20169;-90
2022/01/02 00:08:42;;;;;;;170.57;11.27;;;;;;;;;;6112676;23;20158;-91
2022/01/02 00:11:48;;;;;;;282.73;14.00;;;;;;;;;;6130555;23;20158;-91
2022/01/02 00:14:56;;;;;;;206.53;13.00;;;;;;;;;;6132195;23;20190;-91
2022/01/02 00:18:08;;;;;;;174.47;10.53;;;;;;;;;;6115610;23;20171;-90
2022/01/02 00:21:14;;;;;;;202.40;11.23;;;;;;;;;;6129281;23;20166;-91
2022/01/02 00:24:20;;;;;;;203.23;11.17;;;;;;;;;;6130664;23;20237;-90
2022/01/02 00:27:26;;;;;;;216.67;13.03;;;;;;;;;;6114215;23;20174;-91
2022/01/02 00:30:34;;;;;;;166.23;10.80;;;;;;;;;;6131159;23;20614;-93
2022/01/02 00:33:39;;;;;;;91.33;9.97;;;;;;;;;;6140496;23;20189;-91
2022/01/02 00:36:45;;;;;;;185.30;11.77;;;;;;;;;;6141260;23;20206;-93
2022/01/02 00:39:50;;;;;;;77.27;9.97;;;;;;;;;;6124613;23;20162;-92
2022/01/02 00:43:00;;;;;;;94.87;9.27;;;;;;;;;;6141404;23;20196;-92
2022/01/02 00:46:10;;;;;;;139.83;12.27;;;;;;;;;;6142600;23;20239;-92
2022/01/02 00:49:18;;;;;;;114.83;9.70;;;;;;;;;;6125666;23;20165;-90
2022/01/02 00:52:24;;;;;;;133.77;9.70;;;;;;;;;;6142085;23;20174;-90
2022/01/02 00:55:35;;;;;;;150.17;10.13;;;;;;;;;;6125233;23;20206;-91
2022/01/02 00:58:47;;;;;;;68.40;7.37;;;;;;;;;;6142683;23;20227;-91
2022/01/02 01:01:57;;;;;;;83.40;8.63;;;;;;;;;;6142189;23;20172;-90
2022/01/02 01:05:04;;;;;;;95.20;9.23;;;;;;;;;;6145291;23;20170;-91
2022/01/02 01:08:09;;;;;;;96.77;8.23;;;;;;;;;;6145078;23;20169;-91
2022/01/02 01:11:15;;;;;;;157.67;8.87;;;;;;;;;;6143961;23;20237;-91
2022/01/02 01:14:25;;;;;;;88.80;8.17;;;;;;;;;;6144975;23;20249;-91
2022/01/02 01:17:31;;;;;;;159.70;8.47;;;;;;;;;;6145128;23;20161;-91
2022/01/02 01:20:40;;;;;;;132.87;8.73;;;;;;;;;;6128221;23;20235;-91
2022/01/02 01:23:46;;;;;;;132.10;8.77;;;;;;;;;;6128090;23;20217;-89
2022/01/02 01:26:53;;;;;;;104.67;7.37;;;;;;;;;;6129398;23;20165;-91
2022/01/02 01:29:58;;;;;;;177.30;10.50;;;;;;;;;;6127893;23;20222;-89
2022/01/02 01:33:05;;;;;;;143.87;9.43;;;;;;;;;;6127904;23;20169;-92
2022/01/02 01:36:10;;;;;;;207.33;10.20;;;;;;;;;;6131315;23;20169;-90
2022/01/02 01:39:16;;;;;;;108.43;8.27;;;;;;;;;;6130300;23;20173;-89
2022/01/02 01:42:31;;;;;;;101.40;7.80;;;;;;;;;;6131025;23;20190;-92
2022/01/02 01:45:36;;;;;;;71.93;7.50;;;;;;;;;;6128854;23;20294;-91
2022/01/02 01:48:53;;;;;;;136.50;8.23;;;;;;;;;;6144978;23;20538;-91
2022/01/02 01:51:58;;;;;;;144.93;9.27;;;;;;;;;;6126970;23;20174;-90
2022/01/02 01:55:04;;;;;;;95.47;7.43;;;;;;;;;;6128383;23;20168;-90
2022/01/02 01:58:09;;;;;;;105.00;7.93;;;;;;;;;;6143482;23;20165;-90
2022/01/02 02:01:19;;;;;;;71.97;7.50;;;;;;;;;;6146114;23;20238;-91
2022/01/02 02:04:32;;;;;;;96.03;7.87;;;;;;;;;;6145174;23;20217;-90
2022/01/02 02:07:40;;;;;;;155.33;8.33;;;;;;;;;;6142054;23;20211;-91
2022/01/02 02:10:54;;;;;;;82.67;7.07;;;;;;;;;;6144329;23;20177;-91
2022/01/02 02:14:36;;;;;;;113.03;8.67;;;;;;;;;;6147163;23;20193;-90
2022/01/02 02:17:45;;;;;;;99.60;7.87;;;;;;;;;;6127670;23;20157;-92
2022/01/02 02:20:52;;;;;;;84.07;7.60;;;;;;;;;;6145686;23;20221;-92
2022/01/02 02:24:04;;;;;;;93.50;7.60;;;;;;;;;;6128140;23;20193;-91
2022/01/02 02:27:09;;;;;;;114.83;8.20;;;;;;;;;;6145087;23;20693;-91
2022/01/02 02:30:15;;;;;;;170.23;9.00;;;;;;;;;;6127369;23;20174;-91
2022/01/02 02:33:20;;;;;;;73.17;7.37;;;;;;;;;;6129704;23;20192;-91
2022/01/02 02:36:28;;;;;;;117.93;8.13;;;;;;;;;;6129573;23;20294;-91
2022/01/02 02:39:34;;;;;;;168.63;9.63;;;;;;;;;;6146109;23;20223;-90
2022/01/02 02:42:46;;;;;;;95.47;8.20;;;;;;;;;;6187376;23;20189;-91
2022/01/02 02:49:14;;;;;;;164.43;9.67;;;;;;;;;;6189418;23;20156;-92
2022/01/02 02:52:34;;;;;;;61.43;5.80;;;;;;;;;;6188098;23;20176;-91
2022/01/02 02:55:44;;;;;;;95.13;7.00;;;;;;;;;;6188515;23;20171;-91
2022/01/02 02:58:52;;;;;;;40.23;6.43;;;;;;;;;;6187673;23;20180;-90
2022/01/02 03:02:00;;;;;;;99.67;7.73;;;;;;;;;;6188317;23;20216;-92
2022/01/02 03:05:09;;;;;;;93.87;7.10;;;;;;;;;;6186532;23;20200;-89
2022/01/02 03:08:16;;;;;;;52.23;6.00;;;;;;;;;;6183963;23;20156;-91
2022/01/02 03:11:24;;;;;;;86.53;7.17;;;;;;;;;;6186829;23;20147;-91
2022/01/02 03:14:32;;;;;;;58.43;5.83;;;;;;;;;;6186590;23;20164;-92
2022/01/02 03:17:37;;;;;;;49.03;6.53;;;;;;;;;;6185745;23;20184;-91
2022/01/02 03:20:43;;;;;;;69.83;6.13;;;;;;;;;;6187656;23;20152;-90
2022/01/02 03:23:51;;;;;;;146.40;7.67;;;;;;;;;;6187491;23;20195;-91
2022/01/02 03:26:56;;;;;;;87.60;7.40;;;;;;;;;;6186439;23;20191;-89
2022/01/02 03:30:03;;;;;;;72.80;6.57;;;;;;;;;;6206463;23;20204;-91
2022/01/02 03:33:11;;;;;;;46.67;6.77;;;;;;;;;;6188284;23;20215;-92
2022/01/02 03:36:16;;;;;;;51.80;5.90;;;;;;;;;;6185956;23;20163;-90
2022/01/02 03:39:24;;;;;;;66.53;6.63;;;;;;;;;;6186210;23;20171;-90
2022/01/02 03:42:30;;;;;;;82.07;6.83;;;;;;;;;;6187524;23;20168;-90
2022/01/02 03:45:36;;;;;;;132.53;7.93;;;;;;;;;;6205259;23;20655;-90
2022/01/02 03:48:44;;;;;;;83.50;6.70;;;;;;;;;;6188364;23;20168;-91
2022/01/02 03:51:51;;;;;;;102.73;7.43;;;;;;;;;;6187842;23;20264;-90
2022/01/02 03:54:59;;;;;;;121.63;7.40;;;;;;;;;;6186501;23;20184;-90
2022/01/02 03:58:04;;;;;;;134.23;7.43;;;;;;;;;;6186768;23;20215;-90
2022/01/02 04:01:12;;;;;;;74.77;5.77;;;;;;;;;;6184046;23;20167;-91
2022/01/02 04:04:18;;;;;;;39.40;5.83;;;;;;;;;;6188767;23;20199;-90
2022/01/02 04:07:24;;;;;;;102.53;7.23;;;;;;;;;;6187614;23;20226;-90
2022/01/02 04:10:32;;;;;;;138.00;7.50;;;;;;;;;;6188478;23;20152;-91
2022/01/02 04:13:56;;;;;;;115.60;7.90;;;;;;;;;;6188467;23;20623;-91
2022/01/02 04:17:02;;;;;;;91.07;6.13;;;;;;;;;;6186761;23;20168;-92
2022/01/02 04:20:08;;;;;;;95.30;6.07;;;;;;;;;;6188050;23;20171;-91
2022/01/02 04:23:14;;;;;;;80.53;5.93;;;;;;;;;;6187330;23;20152;-91
2022/01/02 04:26:20;;;;;;;57.67;5.67;;;;;;;;;;6187731;23;20208;-90
2022/01/02 04:29:26;;;;;;;56.63;6.37;;;;;;;;;;6187850;23;20172;-90
2022/01/02 04:32:31;;;;;;;51.30;5.37;;;;;;;;;;6187096;23;20159;-90
2022/01/02 04:35:37;;;;;;;88.57;6.33;;;;;;;;;;6187758;23;20175;-91
2022/01/02 04:38:45;;;;;;;80.63;5.40;;;;;;;;;;6188175;23;20241;-91
2022/01/02 04:41:53;;;;;;;104.33;6.20;;;;;;;;;;6191057;23;20163;-90
2022/01/02 04:44:59;;;;;;;111.37;6.67;;;;;;;;;;6187414;23;20195;-91
2022/01/02 04:48:06;;;;;;;59.60;5.30;;;;;;;;;;6190168;23;20217;-91
2022/01/02 04:51:12;;;;;;;117.10;6.70;;;;;;;;;;6189695;23;20196;-90
2022/01/02 04:54:18;;;;;;;100.80;6.67;;;;;;;;;;6189424;23;20221;-92
2022/01/02 04:57:25;;;;;;;127.00;6.30;;;;;;;;;;6189120;23;20216;-91
2022/01/02 05:00:33;;;;;;;50.30;5.57;;;;;;;;;;6188653;23;20149;-92
2022/01/02 05:03:39;;;;;;;47.03;5.03;;;;;;;;;;6189135;23;20229;-91
2022/01/02 05:06:45;;;;;;;78.67;5.57;;;;;;;;;;6187194;23;20168;-91
2022/01/02 05:09:50;;;;;;;89.60;5.77;;;;;;;;;;6186622;23;20164;-91
2022/01/02 05:12:57;;;;;;;43.10;4.87;;;;;;;;;;6188502;23;20163;-90
2022/01/02 05:16:02;;;;;;;63.50;5.47;;;;;;;;;;6187294;23;20204;-91
2022/01/02 05:19:07;;;;;;;54.67;5.20;;;;;;;;;;6187633;23;20160;-92
2022/01/02 05:22:14;;;;;;;69.23;5.80;;;;;;;;;;6187463;23;20151;-92
2022/01/02 05:25:19;;;;;;;53.70;5.70;;;;;;;;;;6189881;23;20203;-90
2022/01/02 05:28:27;;;;;;;28.57;4.67;;;;;;;;;;6187851;23;20172;-91
2022/01/02 05:31:33;;;;;;;36.13;4.67;;;;;;;;;;6186355;23;20277;-90
2022/01/02 05:34:39;;;;;;;38.37;5.30;;;;;;;;;;6187129;23;20162;-91
2022/01/02 05:37:46;;;;;;;64.93;5.60;;;;;;;;;;6187339;23;20155;-91
2022/01/02 05:40:53;;;;;;;38.83;5.17;;;;;;;;;;6174542;23;20221;-91
2022/01/02 05:44:02;;;;;;;51.93;4.87;;;;;;;;;;6175993;23;20193;-91
2022/01/02 05:47:07;;;;;;;20.17;3.53;;;;;;;;;;6173932;23;20463;-91
2022/01/02 05:50:51;;;;;;;27.07;4.07;;;;;;;;;;6174047;23;20222;-91
2022/01/02 05:53:56;;;;;;;37.07;4.17;;;;;;;;;;6175432;23;20240;-90
2022/01/02 05:57:02;;;;;;;44.07;3.93;;;;;;;;;;6173736;23;20219;-90
2022/01/02 06:00:10;;;;;;;51.70;4.27;;;;;;;;;;6173481;23;20238;-90
2022/01/02 06:03:27;;;;;;;16.17;3.60;;;;;;;;;;6173092;23;20196;-90
2022/01/02 06:06:32;;;;;;;18.97;3.33;;;;;;;;;;6177251;23;20172;-90
2022/01/02 06:09:38;;;;;;;36.13;3.57;;;;;;;;;;6176777;23;20169;-90
2022/01/02 06:12:49;;;;;;;53.87;4.77;;;;;;;;;;6178332;23;20220;-89
2022/01/02 06:15:55;;;;;;;53.37;4.33;;;;;;;;;;6177881;23;20214;-90
2022/01/02 06:19:01;;;;;;;41.97;4.23;;;;;;;;;;6176524;23;20240;-90
2022/01/02 06:22:06;;;;;;;50.90;4.17;;;;;;;;;;6176536;23;20165;-89
2022/01/02 06:25:12;;;;;;;57.13;4.77;;;;;;;;;;6174398;23;20252;-90
2022/01/02 06:28:18;;;;;;;40.60;4.30;;;;;;;;;;6176367;23;20152;-91
2022/01/02 06:31:24;;;;;;;34.93;3.90;;;;;;;;;;6175885;23;20173;-90
2022/01/02 06:34:29;;;;;;;44.77;4.73;;;;;;;;;;6173808;23;20659;-92
2022/01/02 06:37:36;;;;;;;23.07;3.63;;;;;;;;;;6172256;23;20201;-91
2022/01/02 06:40:42;;;;;;;28.50;4.20;;;;;;;;;;6172743;23;20236;-92
2022/01/02 06:43:51;;;;;;;32.03;3.97;;;;;;;;;;6173170;23;20192;-89
2022/01/02 06:46:58;;;;;;;23.80;3.20;;;;;;;;;;6172959;23;20168;-92
2022/01/02 06:50:03;;;;;;;15.80;3.37;;;;;;;;;;6172328;23;20288;-90
2022/01/02 06:53:09;;;;;;;17.37;4.07;;;;;;;;;;6173650;23;20156;-91
2022/01/02 06:56:16;;;;;;;18.73;3.13;;;;;;;;;;6174635;23;20550;-90
2022/01/02 06:59:22;;;;;;;20.17;3.30;;;;;;;;;;6175044;23;20185;-91
2022/01/02 07:02:30;;;;;;;53.20;4.20;;;;;;;;;;6175175;23;20153;-92
2022/01/02 07:05:36;;;;;;;44.63;4.00;;;;;;;;;;6176711;23;20292;-92
2022/01/02 07:08:42;;;;;;;36.03;4.27;;;;;;;;;;6175300;23;20299;-90
2022/01/02 07:11:47;;;;;;;17.80;3.63;;;;;;;;;;6174739;23;20172;-91
2022/01/02 07:14:52;;;;;;;24.27;3.77;;;;;;;;;;6173129;23;20184;-91
2022/01/02 07:17:59;;;;;;;46.17;4.10;;;;;;;;;;6172277;23;20561;-90
2022/01/02 07:21:04;;;;;;;67.23;4.90;;;;;;;;;;6173947;23;20168;-91
2022/01/02 07:24:12;;;;;;;67.20;5.30;;;;;;;;;;6173089;23;20176;-90
2022/01/02 07:27:19;;;;;;;86.50;5.67;;;;;;;;;;6174574;23;20237;-90
2022/01/02 07:30:24;;;;;;;72.43;4.60;;;;;;;;;;6174959;23;20220;-89
2022/01/02 07:33:30;;;;;;;59.30;4.37;;;;;;;;;;6172276;23;20168;-92
2022/01/02 07:36:38;;;;;;;24.43;3.40;;;;;;;;;;6171383;23;20172;-93
2022/01/02 07:39:43;;;;;;;82.60;5.00;;;;;;;;;;6181031;23;20279;-91
2022/01/02 07:42:48;;;;;;;56.23;4.27;;;;;;;;;;6182782;23;20189;-93
2022/01/02 07:45:58;;;;;;;59.33;5.03;;;;;;;;;;6184103;23;20203;-92
2022/01/02 07:49:05;;;;;;;56.97;4.60;;;;;;;;;;6184824;23;20184;-93
2022/01/02 07:52:10;;;;;;;47.07;4.40;;;;;;;;;;6186986;23;20155;-91
2022/01/02 07:55:16;;;;;;;28.73;3.60;;;;;;;;;;6183011;23;20631;-91
2022/01/02 07:58:24;;;;;;;28.60;4.10;;;;;;;;;;6183360;23;20211;-91
2022/01/02 08:01:29;;;;;;;72.33;4.97;;;;;;;;;;6182886;23;20261;-90
2022/01/02 08:04:36;;;;;;;35.07;3.97;;;;;;;;;;6182120;23;20264;-91
2022/01/02 08:07:41;;;;;;;37.30;3.53;;;;;;;;;;6181358;23;20175;-91
2022/01/02 08:10:46;;;;;;;33.80;3.63;;;;;;;;;;6183308;23;20183;-90
2022/01/02 08:13:51;;;;;;;48.77;4.00;;;;;;;;;;6186953;23;20663;-91
2022/01/02 08:16:56;;;;;;;49.40;4.33;;;;;;;;;;6187631;23;20180;-90
2022/01/02 08:20:04;;;;;;;29.40;4.30;;;;;;;;;;6186097;23;20151;-90
2022/01/02 08:23:09;;;;;;;118.33;7.33;;;;;;;;;;6186298;23;20184;-92
2022/01/02 08:26:14;;;;;;;45.43;4.97;;;;;;;;;;6184374;23;20638;-91
2022/01/02 08:29:20;;;;;;;35.40;4.30;;;;;;;;;;6186955;23;20606;-91
2022/01/02 08:32:25;;;;;;;94.83;5.47;;;;;;;;;;6185973;23;20159;-90
2022/01/02 08:35:36;;;;;;;41.10;4.57;;;;;;;;;;6188764;23;20247;-92
2022/01/02 08:38:41;;;;;;;16.63;4.30;;;;;;;;;;6186365;23;20171;-91
2022/01/02 08:41:46;;;;;;;19.00;4.00;;;;;;;;;;6175338;23;20169;-90
2022/01/02 08:44:51;;;;;;;10.57;3.97;;;;;;;;;;6175350;23;20196;-91
2022/01/02 08:47:56;;;;;;;10.37;3.70;;;;;;;;;;6174729;23;20165;-90
2022/01/02 08:51:04;;;;;;;7.07;3.10;;;;;;;;;;6175336;23;20164;-91
2022/01/02 08:54:09;;;;;;;9.93;5.00;;;;;;;;;;6174274;23;20677;-91
2022/01/02 08:57:14;;;;;;;7.73;3.30;;;;;;;;;;6172719;23;20172;-90
2022/01/02 09:00:19;;;;;;;7.03;3.10;;;;;;;;;;6174270;23;20169;-90
2022/01/02 09:03:25;;;;;;;14.37;3.40;;;;;;;;;;6174498;23;20176;-92
2022/01/02 09:06:31;;;;;;;9.00;3.00;;;;;;;;;;6174450;23;20196;-89
2022/01/02 09:09:37;;;;;;;8.77;3.57;;;;;;;;;;6173140;23;20204;-90
2022/01/02 09:12:42;;;;;;;20.03;3.67;;;;;;;;;;6173079;23;20172;-92
2022/01/02 09:15:47;;;;;;;11.70;4.20;;;;;;;;;;6175664;23;20173;-91
2022/01/02 09:18:52;;;;;;;21.67;3.53;;;;;;;;;;6173947;23;20168;-91
2022/01/02 09:21:59;;;;;;;10.27;4.17;;;;;;;;;;6172245;23;20173;-90
2022/01/02 09:25:05;;;;;;;11.80;3.40;;;;;;;;;;6173064;23;20211;-90
2022/01/02 09:28:10;;;;;;;16.07;3.60;;;;;;;;;;6175197;23;20169;-91
2022/01/02 09:31:15;;;;;;;12.33;3.10;;;;;;;;;;6173360;23;20160;-90
2022/01/02 09:34:21;;;;;;;6.87;3.57;;;;;;;;;;6174441;23;20161;-91
2022/01/02 09:37:28;;;;;;;11.03;4.40;;;;;;;;;;6173347;23;20222;-90
2022/01/02 09:40:33;;;;;;;7.70;3.77;;;;;;;;;;6172486;23;20203;-89
2022/01/02 09:43:39;;;;;;;10.93;4.00;;;;;;;;;;6173606;23;20177;-91
2022/01/02 09:46:44;;;;;;;7.60;3.80;;;;;;;;;;6173739;23;20528;-90
2022/01/02 09:49:50;;;;;;;18.70;4.63;;;;;;;;;;6171983;23;20216;-91
2022/01/02 09:52:57;;;;;;;6.80;3.60;;;;;;;;;;6171560;23;20257;-91
2022/01/02 09:56:02;;;;;;;14.63;3.80;;;;;;;;;;6169538;23;20240;-90
2022/01/02 09:59:08;;;;;;;7.50;3.43;;;;;;;;;;6174584;23;20184;-89
2022/01/02 10:02:13;;;;;;;9.83;4.07;;;;;;;;;;6170865;23;20648;-91
2022/01/02 10:05:18;;;;;;;9.30;3.57;;;;;;;;;;6169744;23;20262;-91
2022/01/02 10:08:26;;;;;;;16.07;3.73;;;;;;;;;;6171145;23;20156;-91
2022/01/02 10:11:33;;;;;;;10.00;3.53;;;;;;;;;;6173006;23;20189;-90
2022/01/02 10:14:43;;;;;;;10.57;3.90;;;;;;;;;;6171828;23;20188;-91
2022/01/02 10:17:55;;;;;;;9.13;4.13;;;;;;;;;;6173256;23;20189;-91
2022/01/02 10:21:01;;;;;;;7.90;3.70;;;;;;;;;;6173365;23;20585;-91
2022/01/02 10:24:19;;;;;;;9.30;3.67;;;;;;;;;;6173600;23;20213;-92
2022/01/02 10:27:27;;;;;;;6.97;3.33;;;;;;;;;;6175322;23;20176;-90
2022/01/02 10:30:33;;;;;;;7.03;3.70;;;;;;;;;;6173037;23;20246;-91
2022/01/02 10:33:48;;;;;;;6.67;3.37;;;;;;;;;;6173950;23;20160;-90
2022/01/02 10:36:53;;;;;;;7.33;3.40;;;;;;;;;;6172047;23;20168;-90
2022/01/02 10:40:01;;;;;;;9.17;4.10;;;;;;;;;;6172113;23;20196;-88
2022/01/02 10:43:08;;;;;;;10.77;4.03;;;;;;;;;;6173369;23;20177;-89
2022/01/02 10:46:13;;;;;;;8.80;4.40;;;;;;;;;;6170848;23;20196;-89
2022/01/02 10:49:18;;;;;;;7.90;4.03;;;;;;;;;;6171011;23;20195;-91
2022/01/02 10:52:24;;;;;;;14.33;4.23;;;;;;;;;;6172612;23;20164;-92
2022/01/02 10:55:31;;;;;;;6.70;3.90;;;;;;;;;;6173550;23;20179;-90
2022/01/02 10:58:40;;;;;;;6.10;3.50;;;;;;;;;;6172317;23;20173;-91
2022/01/02 11:02:18;;;;;;;6.40;3.63;;;;;;;;;;6173700;23;20173;-89
2022/01/02 11:05:23;;;;;;;7.37;4.37;;;;;;;;;;6173087;23;20234;-91
2022/01/02 11:08:31;;;;;;;9.23;4.60;;;;;;;;;;6171456;23;20612;-90
2022/01/02 11:11:39;;;;;;;8.47;4.57;;;;;;;;;;6172083;23;20185;-90
2022/01/02 11:14:44;;;;;;;14.50;5.20;;;;;;;;;;6172235;23;20202;-91
2022/01/02 11:17:50;;;;;;;15.20;5.63;;;;;;;;;;6173596;23;20197;-90
2022/01/02 11:20:56;;;;;;;11.57;4.80;;;;;;;;;;6172423;23;20209;-91
2022/01/02 11:24:05;;;;;;;9.80;4.73;;;;;;;;;;6172664;23;20165;-91
2022/01/02 11:27:17;;;;;;;9.97;4.83;;;;;;;;;;6172423;23;20221;-91
2022/01/02 11:30:36;;;;;;;9.30;4.67;;;;;;;;;;6171262;23;20168;-90
2022/01/02 16:23:22;;;;;;;25.60;12.03;;;;;;;;;;6101552;23;20174;-92
2022/01/02 18:35:42;;;;;;;55.07;10.90;;;;;;;;;;6113868;23;20237;-90
2022/01/02 18:38:49;;;;;;;51.07;13.47;;;;;;;;;;6162024;23;20168;-92
2022/01/02 18:41:56;;;;;;;56.83;10.60;;;;;;;;;;6161517;23;20564;-91
2022/01/02 18:45:02;;;;;;;49.87;9.93;;;;;;;;;;6159868;23;20221;-90
2022/01/02 18:48:08;;;;;;;88.20;11.93;;;;;;;;;;6161681;23;20164;-93
2022/01/02 18:51:18;;;;;;;54.53;10.80;;;;;;;;;;6159988;23;20156;-91
